LFPM 202300Z AUTO 36007KT CAVOK 14/09 Q1015

Les avions qui composent notre flotte

Avion Robin DR400 2+2

L'avion école par excellence

F-GAVN
   * tarif promotionnel appliqué pendant la formation des élèves non brevetés


F-GAVN Planche